sensor_id;sensor_type;location;lat;lon;timestamp;P1;durP1;ratioP1;P2;durP2;ratioP2
6852;SDS011;3465;42.144;24.722;2024-01-15T00:00:42;38.22;;;19.38;;
6852;SDS011;3465;42.144;24.722;2024-01-15T00:03:08;41.42;;;21.23;;
6852;SDS011;3465;42.144;24.722;2024-01-15T00:05:34;44.85;;;20.38;;
6852;SDS011;3465;42.144;24.722;2024-01-15T00:08:00;42.00;;;18.65;;
6852;SDS011;3465;42.144;24.722;2024-01-15T00:10:25;45.78;;;20.17;;
6852;SDS011;3465;42.144;24.722;2024-01-15T00:12:51;45.85;;;17.92;;
6852;SDS011;3465;42.144;24.722;2024-01-15T00:15:16;40.30;;;19.02;;
6852;SDS011;3465;42.144;24.722;2024-01-15T00:17:42;37.80;;;16.92;;
6852;SDS011;3465;42.144;24.722;2024-01-15T00:20:07;40.58;;;18.80;;
6852;SDS011;3465;42.144;24.722;2024-01-15T00:22:33;40.40;;;20.73;;
6852;SDS011;3465;42.144;24.722;2024-01-15T00:25:00;38.47;;;18.02;;
6852;SDS011;3465;42.144;24.722;2024-01-15T00:27:26;37.00;;;18.30;;
6852;SDS011;3465;42.144;24.722;2024-01-15T00:29:52;39.35;;;18.83;;
6852;SDS011;3465;42.144;24.722;2024-01-15T00:37:10;37.28;;;16.02;;
6852;SDS011;3465;42.144;24.722;2024-01-15T00:39:35;46.17;;;19.75;;
6852;SDS011;3465;42.144;24.722;2024-01-15T00:42:01;39.33;;;17.70;;
6852;SDS011;3465;42.144;24.722;2024-01-15T00:44:26;38.50;;;17.83;;
6852;SDS011;3465;42.144;24.722;2024-01-15T00:46:52;41.88;;;18.45;;
6852;SDS011;3465;42.144;24.722;2024-01-15T00:49:17;40.33;;;18.70;;
6852;SDS011;3465;42.144;24.722;2024-01-15T00:51:43;42.75;;;18.73;;
6852;SDS011;3465;42.144;24.722;2024-01-15T00:54:08;42.67;;;18.50;;
6852;SDS011;3465;42.144;24.722;2024-01-15T00:56:34;40.33;;;18.10;;
6852;SDS011;3465;42.144;24.722;2024-01-15T00:59:00;41.83;;;19.83;;
6852;SDS011;3465;42.144;24.722;2024-01-15T01:01:25;42.50;;;18.17;;
6852;SDS011;3465;42.144;24.722;2024-01-15T01:03:51;44.47;;;19.23;;
6852;SDS011;3465;42.144;24.722;2024-01-15T01:06:16;39.97;;;19.23;;
6852;SDS011;3465;42.144;24.722;2024-01-15T01:08:42;37.53;;;18.45;;
6852;SDS011;3465;42.144;24.722;2024-01-15T01:11:12;36.42;;;17.90;;
6852;SDS011;3465;42.144;24.722;2024-01-15T01:13:38;45.33;;;19.05;;
6852;SDS011;3465;42.144;24.722;2024-01-15T01:16:04;43.08;;;21.05;;
6852;SDS011;3465;42.144;24.722;2024-01-15T01:18:29;40.42;;;19.63;;
6852;SDS011;3465;42.144;24.722;2024-01-15T01:20:55;39.63;;;19.00;;
6852;SDS011;3465;42.144;24.722;2024-01-15T01:23:20;43.78;;;19.83;;
6852;SDS011;3465;42.144;24.722;2024-01-15T01:25:45;44.60;;;19.63;;
6852;SDS011;3465;42.144;24.722;2024-01-15T01:28:11;45.22;;;19.50;;
6852;SDS011;3465;42.144;24.722;2024-01-15T01:30:36;44.45;;;18.83;;
6852;SDS011;3465;42.144;24.722;2024-01-15T01:33:02;48.40;;;19.95;;
6852;SDS011;3465;42.144;24.722;2024-01-15T01:35:27;45.97;;;20.80;;
6852;SDS011;3465;42.144;24.722;2024-01-15T01:37:53;48.30;;;19.70;;
6852;SDS011;3465;42.144;24.722;2024-01-15T01:40:18;48.40;;;21.35;;
6852;SDS011;3465;42.144;24.722;2024-01-15T01:42:44;51.45;;;22.00;;
6852;SDS011;3465;42.144;24.722;2024-01-15T01:45:10;40.28;;;20.42;;
6852;SDS011;3465;42.144;24.722;2024-01-15T01:47:36;48.15;;;21.40;;
6852;SDS011;3465;42.144;24.722;2024-01-15T01:50:02;42.92;;;21.63;;
6852;SDS011;3465;42.144;24.722;2024-01-15T01:52:28;45.90;;;21.55;;
6852;SDS011;3465;42.144;24.722;2024-01-15T01:54:54;49.33;;;21.15;;
6852;SDS011;3465;42.144;24.722;2024-01-15T01:57:19;42.58;;;20.95;;
6852;SDS011;3465;42.144;24.722;2024-01-15T01:59:45;43.72;;;21.42;;
6852;SDS011;3465;42.144;24.722;2024-01-15T02:02:11;45.78;;;21.85;;
6852;SDS011;3465;42.144;24.722;2024-01-15T02:04:37;44.03;;;19.77;;
6852;SDS011;3465;42.144;24.722;2024-01-15T02:07:03;43.90;;;21.38;;
6852;SDS011;3465;42.144;24.722;2024-01-15T02:09:29;46.63;;;18.73;;
6852;SDS011;3465;42.144;24.722;2024-01-15T02:11:54;42.88;;;19.88;;
6852;SDS011;3465;42.144;24.722;2024-01-15T02:14:20;39.40;;;19.33;;
6852;SDS011;3465;42.144;24.722;2024-01-15T02:16:46;43.92;;;20.17;;
6852;SDS011;3465;42.144;24.722;2024-01-15T02:19:15;35.88;;;17.63;;
6852;SDS011;3465;42.144;24.722;2024-01-15T02:21:42;42.78;;;20.50;;
6852;SDS011;3465;42.144;24.722;2024-01-15T02:24:08;46.40;;;20.35;;
6852;SDS011;3465;42.144;24.722;2024-01-15T02:26:33;43.88;;;19.63;;
6852;SDS011;3465;42.144;24.722;2024-01-15T02:29:03;40.50;;;19.80;;
6852;SDS011;3465;42.144;24.722;2024-01-15T02:31:30;39.13;;;18.42;;
6852;SDS011;3465;42.144;24.722;2024-01-15T02:33:55;39.72;;;17.23;;
6852;SDS011;3465;42.144;24.722;2024-01-15T02:36:21;44.60;;;18.27;;
6852;SDS011;3465;42.144;24.722;2024-01-15T02:38:46;35.42;;;16.58;;
6852;SDS011;3465;42.144;24.722;2024-01-15T02:41:11;35.38;;;19.35;;
6852;SDS011;3465;42.144;24.722;2024-01-15T02:43:39;30.45;;;16.27;;
6852;SDS011;3465;42.144;24.722;2024-01-15T02:46:05;41.53;;;19.85;;
6852;SDS011;3465;42.144;24.722;2024-01-15T02:48:31;35.70;;;16.77;;
6852;SDS011;3465;42.144;24.722;2024-01-15T02:50:56;32.85;;;17.85;;
6852;SDS011;3465;42.144;24.722;2024-01-15T02:53:22;32.28;;;15.45;;
6852;SDS011;3465;42.144;24.722;2024-01-15T02:55:47;35.90;;;16.77;;
6852;SDS011;3465;42.144;24.722;2024-01-15T02:58:14;38.30;;;17.23;;
6852;SDS011;3465;42.144;24.722;2024-01-15T03:05:30;31.90;;;16.20;;
6852;SDS011;3465;42.144;24.722;2024-01-15T03:07:56;36.22;;;15.57;;
6852;SDS011;3465;42.144;24.722;2024-01-15T03:10:21;38.22;;;17.27;;
6852;SDS011;3465;42.144;24.722;2024-01-15T03:12:47;43.30;;;19.45;;
6852;SDS011;3465;42.144;24.722;2024-01-15T03:15:12;44.22;;;18.83;;
6852;SDS011;3465;42.144;24.722;2024-01-15T03:17:38;43.13;;;19.27;;
6852;SDS011;3465;42.144;24.722;2024-01-15T03:20:04;40.45;;;19.05;;
6852;SDS011;3465;42.144;24.722;2024-01-15T03:22:29;39.53;;;17.92;;
6852;SDS011;3465;42.144;24.722;2024-01-15T03:24:55;43.35;;;19.05;;
6852;SDS011;3465;42.144;24.722;2024-01-15T03:27:20;44.38;;;21.35;;
6852;SDS011;3465;42.144;24.722;2024-01-15T03:29:46;38.33;;;18.63;;
6852;SDS011;3465;42.144;24.722;2024-01-15T03:32:11;40.70;;;18.40;;
6852;SDS011;3465;42.144;24.722;2024-01-15T03:34:37;45.17;;;19.77;;
6852;SDS011;3465;42.144;24.722;2024-01-15T03:37:03;45.25;;;20.38;;
6852;SDS011;3465;42.144;24.722;2024-01-15T03:39:28;41.08;;;19.92;;
6852;SDS011;3465;42.144;24.722;2024-01-15T03:41:54;39.80;;;18.08;;
6852;SDS011;3465;42.144;24.722;2024-01-15T03:44:20;39.47;;;18.52;;
6852;SDS011;3465;42.144;24.722;2024-01-15T03:46:46;36.78;;;19.65;;
6852;SDS011;3465;42.144;24.722;2024-01-15T03:49:11;40.10;;;17.77;;
6852;SDS011;3465;42.144;24.722;2024-01-15T03:51:37;43.17;;;19.98;;
6852;SDS011;3465;42.144;24.722;2024-01-15T03:54:02;43.45;;;21.58;;
6852;SDS011;3465;42.144;24.722;2024-01-15T03:56:28;39.22;;;17.83;;
6852;SDS011;3465;42.144;24.722;2024-01-15T03:58:54;39.95;;;19.52;;
6852;SDS011;3465;42.144;24.722;2024-01-15T04:01:19;46.78;;;21.50;;
6852;SDS011;3465;42.144;24.722;2024-01-15T04:03:45;42.75;;;17.73;;
6852;SDS011;3465;42.144;24.722;2024-01-15T04:06:10;37.53;;;16.10;;
6852;SDS011;3465;42.144;24.722;2024-01-15T04:08:36;39.05;;;17.85;;
6852;SDS011;3465;42.144;24.722;2024-01-15T04:11:01;42.78;;;19.70;;
6852;SDS011;3465;42.144;24.722;2024-01-15T04:13:27;34.75;;;16.33;;
6852;SDS011;3465;42.144;24.722;2024-01-15T04:15:52;38.08;;;17.05;;
6852;SDS011;3465;42.144;24.722;2024-01-15T04:18:18;34.65;;;17.20;;
6852;SDS011;3465;42.144;24.722;2024-01-15T04:20:43;40.60;;;17.67;;
6852;SDS011;3465;42.144;24.722;2024-01-15T04:23:09;34.10;;;16.38;;
6852;SDS011;3465;42.144;24.722;2024-01-15T04:25:34;35.53;;;17.20;;
6852;SDS011;3465;42.144;24.722;2024-01-15T04:28:00;42.53;;;20.33;;
6852;SDS011;3465;42.144;24.722;2024-01-15T04:30:26;46.88;;;19.05;;
6852;SDS011;3465;42.144;24.722;2024-01-15T04:32:51;38.70;;;17.15;;
6852;SDS011;3465;42.144;24.722;2024-01-15T04:35:17;40.75;;;16.83;;
6852;SDS011;3465;42.144;24.722;2024-01-15T04:37:42;33.97;;;17.23;;
6852;SDS011;3465;42.144;24.722;2024-01-15T04:40:08;32.63;;;16.10;;
6852;SDS011;3465;42.144;24.722;2024-01-15T04:42:34;31.55;;;15.93;;
6852;SDS011;3465;42.144;24.722;2024-01-15T04:44:59;35.03;;;16.23;;
6852;SDS011;3465;42.144;24.722;2024-01-15T04:47:25;29.55;;;16.00;;
6852;SDS011;3465;42.144;24.722;2024-01-15T04:49:50;37.40;;;16.75;;
6852;SDS011;3465;42.144;24.722;2024-01-15T04:52:16;29.80;;;16.05;;
6852;SDS011;3465;42.144;24.722;2024-01-15T04:54:42;35.88;;;17.90;;
6852;SDS011;3465;42.144;24.722;2024-01-15T04:57:07;31.23;;;15.50;;
6852;SDS011;3465;42.144;24.722;2024-01-15T04:59:33;33.03;;;14.88;;
6852;SDS011;3465;42.144;24.722;2024-01-15T05:01:58;27.77;;;14.23;;
6852;SDS011;3465;42.144;24.722;2024-01-15T05:04:24;37.72;;;17.60;;
6852;SDS011;3465;42.144;24.722;2024-01-15T05:06:53;25.45;;;13.52;;
6852;SDS011;3465;42.144;24.722;2024-01-15T05:09:18;34.55;;;15.98;;
6852;SDS011;3465;42.144;24.722;2024-01-15T05:11:44;35.47;;;15.90;;
6852;SDS011;3465;42.144;24.722;2024-01-15T05:14:09;36.28;;;15.80;;
6852;SDS011;3465;42.144;24.722;2024-01-15T05:16:37;31.63;;;15.00;;
6852;SDS011;3465;42.144;24.722;2024-01-15T05:19:03;31.63;;;16.35;;
6852;SDS011;3465;42.144;24.722;2024-01-15T05:21:29;32.03;;;14.57;;
6852;SDS011;3465;42.144;24.722;2024-01-15T05:23:54;32.55;;;16.02;;
6852;SDS011;3465;42.144;24.722;2024-01-15T05:26:20;35.63;;;16.33;;
6852;SDS011;3465;42.144;24.722;2024-01-15T05:28:45;34.30;;;15.10;;
6852;SDS011;3465;42.144;24.722;2024-01-15T05:31:10;46.53;;;17.98;;
6852;SDS011;3465;42.144;24.722;2024-01-15T05:33:36;37.22;;;17.50;;
6852;SDS011;3465;42.144;24.722;2024-01-15T05:36:02;37.88;;;15.98;;
6852;SDS011;3465;42.144;24.722;2024-01-15T05:38:28;33.22;;;16.85;;
6852;SDS011;3465;42.144;24.722;2024-01-15T05:40:53;34.65;;;16.30;;
6852;SDS011;3465;42.144;24.722;2024-01-15T05:43:19;39.35;;;18.13;;
6852;SDS011;3465;42.144;24.722;2024-01-15T05:45:44;31.13;;;16.15;;
6852;SDS011;3465;42.144;24.722;2024-01-15T05:48:10;41.50;;;17.50;;
6852;SDS011;3465;42.144;24.722;2024-01-15T05:50:36;32.00;;;16.15;;
6852;SDS011;3465;42.144;24.722;2024-01-15T05:53:01;31.33;;;16.00;;
6852;SDS011;3465;42.144;24.722;2024-01-15T05:55:27;31.75;;;15.10;;
6852;SDS011;3465;42.144;24.722;2024-01-15T05:57:53;41.28;;;19.15;;
6852;SDS011;3465;42.144;24.722;2024-01-15T06:00:18;33.85;;;14.50;;
6852;SDS011;3465;42.144;24.722;2024-01-15T06:02:44;39.03;;;17.92;;
6852;SDS011;3465;42.144;24.722;2024-01-15T06:05:09;31.48;;;14.85;;
6852;SDS011;3465;42.144;24.722;2024-01-15T06:07:35;35.05;;;14.98;;
6852;SDS011;3465;42.144;24.722;2024-01-15T06:10:01;38.45;;;17.27;;
6852;SDS011;3465;42.144;24.722;2024-01-15T06:12:27;24.85;;;12.45;;
6852;SDS011;3465;42.144;24.722;2024-01-15T06:14:53;31.17;;;14.45;;
6852;SDS011;3465;42.144;24.722;2024-01-15T06:17:18;32.40;;;16.55;;
6852;SDS011;3465;42.144;24.722;2024-01-15T06:19:44;31.35;;;15.10;;
6852;SDS011;3465;42.144;24.722;2024-01-15T06:22:09;33.72;;;13.02;;
6852;SDS011;3465;42.144;24.722;2024-01-15T06:24:35;35.40;;;16.35;;
6852;SDS011;3465;42.144;24.722;2024-01-15T06:27:00;33.75;;;15.13;;
6852;SDS011;3465;42.144;24.722;2024-01-15T06:29:26;30.02;;;12.88;;
6852;SDS011;3465;42.144;24.722;2024-01-15T06:31:52;34.00;;;14.77;;
6852;SDS011;3465;42.144;24.722;2024-01-15T06:34:18;28.17;;;13.57;;
6852;SDS011;3465;42.144;24.722;2024-01-15T06:36:43;30.35;;;14.27;;
6852;SDS011;3465;42.144;24.722;2024-01-15T06:39:09;27.48;;;13.77;;
6852;SDS011;3465;42.144;24.722;2024-01-15T06:41:35;28.88;;;13.25;;
6852;SDS011;3465;42.144;24.722;2024-01-15T06:44:06;36.70;;;15.23;;
6852;SDS011;3465;42.144;24.722;2024-01-15T06:46:32;27.88;;;13.57;;
6852;SDS011;3465;42.144;24.722;2024-01-15T06:48:57;32.65;;;14.23;;
6852;SDS011;3465;42.144;24.722;2024-01-15T06:51:23;27.38;;;14.02;;
6852;SDS011;3465;42.144;24.722;2024-01-15T06:53:48;30.65;;;15.63;;
6852;SDS011;3465;42.144;24.722;2024-01-15T06:56:14;30.67;;;15.90;;
6852;SDS011;3465;42.144;24.722;2024-01-15T06:58:39;39.95;;;15.77;;
6852;SDS011;3465;42.144;24.722;2024-01-15T07:01:05;33.75;;;15.55;;
6852;SDS011;3465;42.144;24.722;2024-01-15T07:03:31;34.33;;;14.80;;
6852;SDS011;3465;42.144;24.722;2024-01-15T07:05:56;33.85;;;15.10;;
6852;SDS011;3465;42.144;24.722;2024-01-15T07:08:22;30.15;;;16.73;;
6852;SDS011;3465;42.144;24.722;2024-01-15T07:10:47;34.42;;;16.25;;
6852;SDS011;3465;42.144;24.722;2024-01-15T07:13:13;48.58;;;18.83;;
6852;SDS011;3465;42.144;24.722;2024-01-15T07:15:38;45.30;;;20.60;;
6852;SDS011;3465;42.144;24.722;2024-01-15T07:18:04;41.58;;;19.48;;
6852;SDS011;3465;42.144;24.722;2024-01-15T07:20:29;45.55;;;21.77;;
6852;SDS011;3465;42.144;24.722;2024-01-15T07:22:55;66.85;;;27.27;;
6852;SDS011;3465;42.144;24.722;2024-01-15T07:25:20;58.88;;;28.58;;
6852;SDS011;3465;42.144;24.722;2024-01-15T07:27:46;55.20;;;27.98;;
6852;SDS011;3465;42.144;24.722;2024-01-15T07:30:12;58.05;;;26.77;;
6852;SDS011;3465;42.144;24.722;2024-01-15T07:32:38;62.10;;;25.88;;
6852;SDS011;3465;42.144;24.722;2024-01-15T07:35:05;50.58;;;24.10;;
6852;SDS011;3465;42.144;24.722;2024-01-15T07:37:31;96.45;;;47.03;;
6852;SDS011;3465;42.144;24.722;2024-01-15T07:39:56;57.60;;;26.05;;
6852;SDS011;3465;42.144;24.722;2024-01-15T07:42:22;45.50;;;25.92;;
6852;SDS011;3465;42.144;24.722;2024-01-15T07:44:47;52.53;;;24.80;;
6852;SDS011;3465;42.144;24.722;2024-01-15T07:47:13;51.83;;;27.30;;
6852;SDS011;3465;42.144;24.722;2024-01-15T07:49:38;53.63;;;28.20;;
6852;SDS011;3465;42.144;24.722;2024-01-15T07:52:04;44.50;;;26.02;;
6852;SDS011;3465;42.144;24.722;2024-01-15T07:54:30;50.55;;;24.60;;
6852;SDS011;3465;42.144;24.722;2024-01-15T07:59:23;46.47;;;23.42;;
6852;SDS011;3465;42.144;24.722;2024-01-15T08:01:49;47.83;;;26.77;;
6852;SDS011;3465;42.144;24.722;2024-01-15T08:04:15;47.28;;;22.02;;
6852;SDS011;3465;42.144;24.722;2024-01-15T08:06:40;41.67;;;20.48;;
6852;SDS011;3465;42.144;24.722;2024-01-15T08:09:06;32.63;;;17.23;;
6852;SDS011;3465;42.144;24.722;2024-01-15T08:11:33;35.92;;;16.75;;
6852;SDS011;3465;42.144;24.722;2024-01-15T08:13:59;34.78;;;17.42;;
6852;SDS011;3465;42.144;24.722;2024-01-15T08:16:25;42.33;;;22.02;;
6852;SDS011;3465;42.144;24.722;2024-01-15T08:18:50;37.97;;;21.42;;
6852;SDS011;3465;42.144;24.722;2024-01-15T08:21:16;38.08;;;20.00;;
6852;SDS011;3465;42.144;24.722;2024-01-15T08:23:41;33.38;;;17.10;;
6852;SDS011;3465;42.144;24.722;2024-01-15T08:26:07;28.95;;;16.17;;
6852;SDS011;3465;42.144;24.722;2024-01-15T08:28:34;30.85;;;18.23;;
6852;SDS011;3465;42.144;24.722;2024-01-15T08:30:59;26.50;;;15.30;;
6852;SDS011;3465;42.144;24.722;2024-01-15T08:33:25;29.33;;;17.42;;
6852;SDS011;3465;42.144;24.722;2024-01-15T08:35:50;27.98;;;13.85;;
6852;SDS011;3465;42.144;24.722;2024-01-15T08:38:16;34.47;;;15.55;;
6852;SDS011;3465;42.144;24.722;2024-01-15T08:40:41;27.92;;;14.05;;
6852;SDS011;3465;42.144;24.722;2024-01-15T08:43:06;27.13;;;13.80;;
6852;SDS011;3465;42.144;24.722;2024-01-15T08:45:32;27.95;;;14.93;;
6852;SDS011;3465;42.144;24.722;2024-01-15T08:47:58;31.25;;;15.32;;
6852;SDS011;3465;42.144;24.722;2024-01-15T08:50:24;31.13;;;17.08;;
6852;SDS011;3465;42.144;24.722;2024-01-15T08:52:49;36.25;;;17.75;;
6852;SDS011;3465;42.144;24.722;2024-01-15T08:55:15;45.75;;;21.70;;
6852;SDS011;3465;42.144;24.722;2024-01-15T08:57:40;32.45;;;18.58;;
6852;SDS011;3465;42.144;24.722;2024-01-15T09:00:06;35.92;;;15.63;;
6852;SDS011;3465;42.144;24.722;2024-01-15T09:02:35;36.33;;;15.35;;
6852;SDS011;3465;42.144;24.722;2024-01-15T09:05:01;34.63;;;16.63;;
6852;SDS011;3465;42.144;24.722;2024-01-15T09:07:27;30.50;;;15.43;;
6852;SDS011;3465;42.144;24.722;2024-01-15T09:09:53;37.95;;;15.43;;
6852;SDS011;3465;42.144;24.722;2024-01-15T09:12:18;36.95;;;15.80;;
6852;SDS011;3465;42.144;24.722;2024-01-15T09:14:46;31.52;;;14.52;;
6852;SDS011;3465;42.144;24.722;2024-01-15T09:17:12;29.70;;;14.15;;
6852;SDS011;3465;42.144;24.722;2024-01-15T09:19:37;25.58;;;13.70;;
6852;SDS011;3465;42.144;24.722;2024-01-15T09:22:05;30.48;;;15.50;;
6852;SDS011;3465;42.144;24.722;2024-01-15T09:24:30;35.28;;;15.93;;
6852;SDS011;3465;42.144;24.722;2024-01-15T09:26:56;32.10;;;14.95;;
6852;SDS011;3465;42.144;24.722;2024-01-15T09:29:21;31.83;;;16.10;;
6852;SDS011;3465;42.144;24.722;2024-01-15T09:31:48;33.28;;;16.38;;
6852;SDS011;3465;42.144;24.722;2024-01-15T09:36:40;26.08;;;15.55;;
6852;SDS011;3465;42.144;24.722;2024-01-15T09:39:07;33.20;;;16.85;;
6852;SDS011;3465;42.144;24.722;2024-01-15T09:41:34;27.48;;;15.95;;
6852;SDS011;3465;42.144;24.722;2024-01-15T09:44:01;31.88;;;13.95;;
6852;SDS011;3465;42.144;24.722;2024-01-15T09:46:28;32.78;;;15.85;;
6852;SDS011;3465;42.144;24.722;2024-01-15T09:48:54;31.27;;;15.15;;
6852;SDS011;3465;42.144;24.722;2024-01-15T09:51:19;35.50;;;16.45;;
6852;SDS011;3465;42.144;24.722;2024-01-15T09:53:45;30.33;;;16.20;;
6852;SDS011;3465;42.144;24.722;2024-01-15T09:56:13;31.58;;;17.15;;
6852;SDS011;3465;42.144;24.722;2024-01-15T10:01:06;38.63;;;15.82;;
6852;SDS011;3465;42.144;24.722;2024-01-15T10:05:59;33.80;;;16.38;;
6852;SDS011;3465;42.144;24.722;2024-01-15T10:10:50;33.25;;;18.45;;
6852;SDS011;3465;42.144;24.722;2024-01-15T10:13:16;35.42;;;18.92;;
6852;SDS011;3465;42.144;24.722;2024-01-15T10:15:44;35.10;;;17.70;;
6852;SDS011;3465;42.144;24.722;2024-01-15T10:18:12;35.13;;;18.77;;
6852;SDS011;3465;42.144;24.722;2024-01-15T10:20:37;35.17;;;17.15;;
6852;SDS011;3465;42.144;24.722;2024-01-15T10:23:04;40.92;;;18.90;;
6852;SDS011;3465;42.144;24.722;2024-01-15T10:25:30;34.72;;;20.52;;
6852;SDS011;3465;42.144;24.722;2024-01-15T10:27:59;39.72;;;20.33;;
6852;SDS011;3465;42.144;24.722;2024-01-15T10:30:26;44.85;;;20.95;;
6852;SDS011;3465;42.144;24.722;2024-01-15T10:32:58;37.20;;;18.45;;
6852;SDS011;3465;42.144;24.722;2024-01-15T10:35:28;67.82;;;34.80;;
6852;SDS011;3465;42.144;24.722;2024-01-15T10:37:59;42.47;;;19.15;;
6852;SDS011;3465;42.144;24.722;2024-01-15T10:40:25;40.67;;;18.05;;
6852;SDS011;3465;42.144;24.722;2024-01-15T10:42:51;43.92;;;20.23;;
6852;SDS011;3465;42.144;24.722;2024-01-15T10:45:16;34.30;;;20.42;;
6852;SDS011;3465;42.144;24.722;2024-01-15T10:47:43;22.42;;;9.60;;
6852;SDS011;3465;42.144;24.722;2024-01-15T10:50:09;34.67;;;19.65;;
6852;SDS011;3465;42.144;24.722;2024-01-15T10:52:35;40.92;;;21.88;;
6852;SDS011;3465;42.144;24.722;2024-01-15T10:55:03;46.35;;;26.25;;
6852;SDS011;3465;42.144;24.722;2024-01-15T10:57:32;43.97;;;23.83;;
6852;SDS011;3465;42.144;24.722;2024-01-15T10:59:57;39.17;;;21.70;;
6852;SDS011;3465;42.144;24.722;2024-01-15T11:02:24;37.55;;;21.65;;
6852;SDS011;3465;42.144;24.722;2024-01-15T11:04:50;41.60;;;22.52;;
6852;SDS011;3465;42.144;24.722;2024-01-15T11:07:16;38.67;;;21.40;;
6852;SDS011;3465;42.144;24.722;2024-01-15T11:09:43;41.30;;;21.88;;
6852;SDS011;3465;42.144;24.722;2024-01-15T11:12:12;40.10;;;19.63;;
6852;SDS011;3465;42.144;24.722;2024-01-15T11:14:42;35.97;;;18.17;;
6852;SDS011;3465;42.144;24.722;2024-01-15T11:17:11;33.92;;;19.88;;
6852;SDS011;3465;42.144;24.722;2024-01-15T11:22:10;26.10;;;14.95;;
6852;SDS011;3465;42.144;24.722;2024-01-15T11:24:54;32.20;;;17.48;;
6852;SDS011;3465;42.144;24.722;2024-01-15T11:27:39;32.83;;;18.90;;
6852;SDS011;3465;42.144;24.722;2024-01-15T11:32:45;34.08;;;17.98;;
6852;SDS011;3465;42.144;24.722;2024-01-15T11:35:12;35.03;;;17.92;;
6852;SDS011;3465;42.144;24.722;2024-01-15T11:40:17;29.17;;;16.80;;
6852;SDS011;3465;42.144;24.722;2024-01-15T11:42:44;33.70;;;17.15;;
6852;SDS011;3465;42.144;24.722;2024-01-15T11:45:10;35.08;;;18.42;;
6852;SDS011;3465;42.144;24.722;2024-01-15T11:50:45;34.97;;;17.60;;
6852;SDS011;3465;42.144;24.722;2024-01-15T11:58:22;29.58;;;16.70;;
6852;SDS011;3465;42.144;24.722;2024-01-15T12:00:48;33.13;;;16.17;;
6852;SDS011;3465;42.144;24.722;2024-01-15T12:03:14;29.77;;;16.98;;
6852;SDS011;3465;42.144;24.722;2024-01-15T12:05:40;34.08;;;16.10;;
6852;SDS011;3465;42.144;24.722;2024-01-15T12:08:09;33.45;;;16.92;;
6852;SDS011;3465;42.144;24.722;2024-01-15T12:10:37;32.08;;;16.15;;
6852;SDS011;3465;42.144;24.722;2024-01-15T12:15:38;36.25;;;18.35;;
6852;SDS011;3465;42.144;24.722;2024-01-15T12:18:06;39.25;;;18.33;;
6852;SDS011;3465;42.144;24.722;2024-01-15T12:20:33;33.00;;;18.73;;
6852;SDS011;3465;42.144;24.722;2024-01-15T12:22:59;32.55;;;17.65;;
6852;SDS011;3465;42.144;24.722;2024-01-15T12:25:26;35.65;;;19.20;;
6852;SDS011;3465;42.144;24.722;2024-01-15T12:27:53;36.03;;;20.17;;
6852;SDS011;3465;42.144;24.722;2024-01-15T12:30:19;38.30;;;20.38;;
6852;SDS011;3465;42.144;24.722;2024-01-15T12:32:45;42.78;;;23.15;;
6852;SDS011;3465;42.144;24.722;2024-01-15T12:35:14;38.08;;;19.65;;
6852;SDS011;3465;42.144;24.722;2024-01-15T12:37:40;50.15;;;22.27;;
6852;SDS011;3465;42.144;24.722;2024-01-15T12:40:07;45.40;;;24.90;;
6852;SDS011;3465;42.144;24.722;2024-01-15T12:42:37;41.28;;;22.83;;
6852;SDS011;3465;42.144;24.722;2024-01-15T12:45:03;45.83;;;24.88;;
6852;SDS011;3465;42.144;24.722;2024-01-15T12:47:31;51.72;;;22.63;;
6852;SDS011;3465;42.144;24.722;2024-01-15T12:49:57;42.30;;;24.23;;
6852;SDS011;3465;42.144;24.722;2024-01-15T12:52:26;47.83;;;24.20;;
6852;SDS011;3465;42.144;24.722;2024-01-15T12:54:52;46.70;;;23.15;;
6852;SDS011;3465;42.144;24.722;2024-01-15T12:57:18;47.38;;;25.17;;
6852;SDS011;3465;42.144;24.722;2024-01-15T12:59:44;49.13;;;23.20;;
6852;SDS011;3465;42.144;24.722;2024-01-15T13:02:10;50.60;;;23.17;;
6852;SDS011;3465;42.144;24.722;2024-01-15T13:04:37;49.70;;;23.48;;
6852;SDS011;3465;42.144;24.722;2024-01-15T13:07:03;53.50;;;24.70;;
6852;SDS011;3465;42.144;24.722;2024-01-15T13:09:29;49.05;;;24.17;;
6852;SDS011;3465;42.144;24.722;2024-01-15T13:11:55;51.22;;;27.67;;
6852;SDS011;3465;42.144;24.722;2024-01-15T13:14:20;47.33;;;26.50;;
6852;SDS011;3465;42.144;24.722;2024-01-15T13:16:46;53.63;;;29.63;;
6852;SDS011;3465;42.144;24.722;2024-01-15T13:19:11;52.67;;;25.13;;
6852;SDS011;3465;42.144;24.722;2024-01-15T13:21:38;46.90;;;24.65;;
6852;SDS011;3465;42.144;24.722;2024-01-15T13:24:05;46.53;;;24.02;;
6852;SDS011;3465;42.144;24.722;2024-01-15T13:26:32;47.17;;;23.98;;
6852;SDS011;3465;42.144;24.722;2024-01-15T13:29:01;46.15;;;26.13;;
6852;SDS011;3465;42.144;24.722;2024-01-15T13:31:27;52.33;;;30.75;;
6852;SDS011;3465;42.144;24.722;2024-01-15T13:33:53;52.95;;;26.15;;
6852;SDS011;3465;42.144;24.722;2024-01-15T13:36:20;56.20;;;26.17;;
6852;SDS011;3465;42.144;24.722;2024-01-15T13:38:46;60.47;;;28.05;;
6852;SDS011;3465;42.144;24.722;2024-01-15T13:41:12;55.92;;;26.80;;
6852;SDS011;3465;42.144;24.722;2024-01-15T13:43:37;52.13;;;26.52;;
6852;SDS011;3465;42.144;24.722;2024-01-15T13:46:03;51.42;;;26.08;;
6852;SDS011;3465;42.144;24.722;2024-01-15T13:48:30;49.30;;;25.33;;
6852;SDS011;3465;42.144;24.722;2024-01-15T13:50:56;49.47;;;24.23;;
6852;SDS011;3465;42.144;24.722;2024-01-15T13:53:24;49.28;;;25.40;;
6852;SDS011;3465;42.144;24.722;2024-01-15T13:55:50;52.47;;;26.98;;
6852;SDS011;3465;42.144;24.722;2024-01-15T13:58:15;55.65;;;26.73;;
6852;SDS011;3465;42.144;24.722;2024-01-15T14:00:43;50.85;;;28.38;;
6852;SDS011;3465;42.144;24.722;2024-01-15T14:03:09;58.40;;;26.05;;
6852;SDS011;3465;42.144;24.722;2024-01-15T14:05:34;50.35;;;25.27;;
6852;SDS011;3465;42.144;24.722;2024-01-15T14:08:00;56.33;;;26.42;;
6852;SDS011;3465;42.144;24.722;2024-01-15T14:10:25;55.95;;;26.42;;
6852;SDS011;3465;42.144;24.722;2024-01-15T14:12:51;47.10;;;24.52;;
6852;SDS011;3465;42.144;24.722;2024-01-15T14:15:16;57.88;;;28.75;;
6852;SDS011;3465;42.144;24.722;2024-01-15T14:17:42;51.40;;;24.20;;
6852;SDS011;3465;42.144;24.722;2024-01-15T14:20:07;55.25;;;25.75;;
6852;SDS011;3465;42.144;24.722;2024-01-15T14:22:36;51.40;;;25.30;;
6852;SDS011;3465;42.144;24.722;2024-01-15T14:25:02;50.47;;;25.00;;
6852;SDS011;3465;42.144;24.722;2024-01-15T14:27:28;70.82;;;43.40;;
6852;SDS011;3465;42.144;24.722;2024-01-15T14:29:53;58.33;;;30.92;;
6852;SDS011;3465;42.144;24.722;2024-01-15T14:32:19;58.22;;;27.65;;
6852;SDS011;3465;42.144;24.722;2024-01-15T14:34:44;53.63;;;26.92;;
6852;SDS011;3465;42.144;24.722;2024-01-15T14:37:10;46.08;;;25.67;;
6852;SDS011;3465;42.144;24.722;2024-01-15T14:39:35;54.17;;;26.13;;
6852;SDS011;3465;42.144;24.722;2024-01-15T14:42:01;53.65;;;26.67;;
6852;SDS011;3465;42.144;24.722;2024-01-15T14:44:27;53.72;;;24.83;;
6852;SDS011;3465;42.144;24.722;2024-01-15T14:46:53;48.80;;;26.17;;
6852;SDS011;3465;42.144;24.722;2024-01-15T14:49:20;50.35;;;26.83;;
6852;SDS011;3465;42.144;24.722;2024-01-15T14:51:46;57.35;;;24.50;;
6852;SDS011;3465;42.144;24.722;2024-01-15T14:54:12;45.53;;;21.85;;
6852;SDS011;3465;42.144;24.722;2024-01-15T14:56:37;41.38;;;21.35;;
6852;SDS011;3465;42.144;24.722;2024-01-15T14:59:03;44.75;;;20.88;;
6852;SDS011;3465;42.144;24.722;2024-01-15T15:01:28;40.10;;;21.77;;
6852;SDS011;3465;42.144;24.722;2024-01-15T15:06:20;37.60;;;21.58;;
6852;SDS011;3465;42.144;24.722;2024-01-15T15:08:46;45.20;;;20.98;;